Main page
METAR-TAF:

METAR-TAF

Airports :

Chièvres Air Base

Chièvres, Belgium

latitude: 50-34N, longitude: 003-50E, elevation: 60 m

Current weather observation

The report was made 33 minutes ago, at 11:25 UTC
Wind 2 kt from variable directions
Temperature 6°C
Humidity 56%
Pressure 1024 hPa
Visibility 10 km or more

METAR: EBCV 081125Z AUTO VRB02KT 9999 NCD 06/M02 Q1024 BLU

Time: 12:58 (11:58 UTC)

Forecast

The report was made 3 hours and 17 minutes ago, at 08:41 UTC
Forecast valid from 08 at 10 UTC to 08 at 19 UTC
Wind 4 kt from the East/Northeast
Visibility 10 km or more
Broken clouds at a height of 5000 ft

TAF: EBCV 080841Z 0810/0819 06004KT 9999 BKN050 BY EBWM

Weather observations and forecasts of more than 4000 airports (METAR and TAF reports).

The available stations are represented by yellow and red dots on the map.

Hover mouse over dot to see the name of the station.

Then click to see weather observations and forecasts.

To change the map : click on the green buttons with a black cross to zoom in, on the green button with a dash to zoom out, or on the green arrows for adjacent maps.


METAR-TAF: